createdAt,value
2022-10-01T00:01:17.655Z,4.00
2022-10-01T00:03:45.315Z,3.65
2022-10-01T00:06:17.586Z,4.45
2022-10-01T00:08:49.317Z,4.13
2022-10-01T00:11:22.267Z,3.03
2022-10-01T00:13:49.917Z,3.88
2022-10-01T00:16:21.703Z,5.15
2022-10-01T00:21:20.292Z,3.72
2022-10-01T00:23:47.984Z,4.35
2022-10-01T00:26:23.320Z,4.75
2022-10-01T00:28:55.738Z,4.68
2022-10-01T00:31:23.049Z,3.63
2022-10-01T00:33:53.688Z,4.18
2022-10-01T00:36:21.133Z,3.03
2022-10-01T00:38:48.429Z,3.40
2022-10-01T00:41:17.882Z,5.55
2022-10-01T00:43:48.035Z,3.70
2022-10-01T00:46:45.381Z,4.45
2022-10-01T00:49:26.796Z,3.13
2022-10-01T00:52:01.743Z,3.50
2022-10-01T00:54:31.467Z,4.32
2022-10-01T00:57:01.265Z,4.40
2022-10-01T00:59:29.476Z,3.22
2022-10-01T01:01:56.625Z,3.90
2022-10-01T01:04:23.688Z,4.80
2022-10-01T01:06:57.876Z,4.15
2022-10-01T01:09:30.597Z,3.50
2022-10-01T01:12:18.671Z,4.18
2022-10-01T01:14:58.031Z,3.65
2022-10-01T01:17:34.017Z,3.25
2022-10-01T01:20:07.740Z,4.13
2022-10-01T01:22:41.545Z,4.00
2022-10-01T01:25:22.084Z,3.20
2022-10-01T01:28:17.396Z,3.33
2022-10-01T01:30:45.043Z,3.25
2022-10-01T01:33:17.710Z,3.00
2022-10-01T01:35:53.155Z,3.25
2022-10-01T01:38:28.135Z,3.15
2022-10-01T01:40:58.959Z,3.20
2022-10-01T01:43:31.487Z,3.38
2022-10-01T01:46:00.940Z,3.38
2022-10-01T01:48:30.981Z,3.50
2022-10-01T01:51:04.583Z,3.25
2022-10-01T01:53:32.240Z,3.08
2022-10-01T01:56:00.457Z,2.90
2022-10-01T01:58:28.278Z,3.05
2022-10-01T02:00:55.407Z,2.90
2022-10-01T02:03:29.204Z,3.25
2022-10-01T02:06:14.202Z,2.65
2022-10-01T02:08:51.395Z,2.95
2022-10-01T02:11:40.721Z,3.42
2022-10-01T02:14:12.675Z,3.00
2022-10-01T02:17:01.548Z,3.70
2022-10-01T02:19:57.253Z,3.90
2022-10-01T02:22:48.371Z,3.22
2022-10-01T02:25:17.563Z,3.60
2022-10-01T02:28:00.578Z,3.60
2022-10-01T02:30:35.622Z,3.50
2022-10-01T02:33:05.069Z,3.50
2022-10-01T02:35:35.270Z,3.30
2022-10-01T02:38:05.730Z,4.55
2022-10-01T02:40:36.526Z,3.20
2022-10-01T02:43:37.328Z,3.53
2022-10-01T02:46:28.482Z,4.10
2022-10-01T02:48:57.139Z,3.67
2022-10-01T02:51:36.399Z,4.00
2022-10-01T02:54:29.725Z,3.58
2022-10-01T02:57:16.739Z,3.40
2022-10-01T02:59:43.590Z,3.67
2022-10-01T03:02:11.336Z,3.53
2022-10-01T03:04:38.604Z,4.00
2022-10-01T03:07:05.706Z,3.60
2022-10-01T03:09:34.599Z,3.65
2022-10-01T03:12:01.980Z,3.45
2022-10-01T03:14:29.303Z,3.28
2022-10-01T03:16:56.157Z,3.90
2022-10-01T03:19:22.970Z,2.97
2022-10-01T03:21:49.759Z,3.13
2022-10-01T03:24:16.579Z,3.20
2022-10-01T03:26:43.386Z,3.40
2022-10-01T03:29:10.192Z,3.30
2022-10-01T03:31:38.356Z,2.92
2022-10-01T03:34:05.552Z,3.08
2022-10-01T03:36:32.458Z,3.30
2022-10-01T03:38:59.277Z,2.80
2022-10-01T03:41:26.367Z,2.90
2022-10-01T03:43:57.103Z,3.22
2022-10-01T03:46:26.547Z,3.03
2022-10-01T03:48:53.349Z,3.05
2022-10-01T03:51:20.866Z,3.42
2022-10-01T03:53:48.150Z,3.08
2022-10-01T03:56:15.698Z,3.03
2022-10-01T03:58:42.893Z,3.47
2022-10-01T04:01:09.676Z,3.38
2022-10-01T04:03:36.819Z,3.25
2022-10-01T04:06:03.799Z,3.53
2022-10-01T04:08:30.592Z,3.25
2022-10-01T04:10:57.371Z,3.35
2022-10-01T04:13:24.226Z,3.17
2022-10-01T04:15:51.006Z,3.20
2022-10-01T04:18:19.370Z,3.60
2022-10-01T04:20:46.139Z,3.60
2022-10-01T04:23:13.129Z,4.13
2022-10-01T04:25:40.048Z,3.63
2022-10-01T04:28:10.437Z,4.57
2022-10-01T04:30:40.151Z,4.15
2022-10-01T04:33:09.648Z,3.90
2022-10-01T04:35:36.662Z,4.65
2022-10-01T04:38:12.488Z,4.18
2022-10-01T04:40:39.407Z,3.65
2022-10-01T04:43:10.377Z,3.97
2022-10-01T04:45:38.208Z,3.92
2022-10-01T04:48:05.605Z,4.00
2022-10-01T04:50:33.139Z,3.50
2022-10-01T04:53:00.014Z,3.35
2022-10-01T04:55:26.890Z,3.60
2022-10-01T04:57:53.825Z,4.15
2022-10-01T05:00:26.649Z,5.10
2022-10-01T05:02:53.955Z,9.50
2022-10-01T05:05:23.786Z,3.38
2022-10-01T05:07:50.835Z,3.13
2022-10-01T05:10:20.303Z,2.72
2022-10-01T05:12:48.129Z,3.65
2022-10-01T05:15:16.820Z,3.40
2022-10-01T05:17:43.856Z,3.15
2022-10-01T05:20:20.029Z,3.10
2022-10-01T05:22:49.002Z,2.95
2022-10-01T05:25:17.436Z,2.90
2022-10-01T05:27:44.753Z,2.97
2022-10-01T05:30:14.239Z,3.08
2022-10-01T05:32:41.935Z,2.85
2022-10-01T05:35:08.904Z,2.60
2022-10-01T05:37:36.099Z,3.05
2022-10-01T05:40:04.000Z,3.33
2022-10-01T05:42:30.795Z,3.00
2022-10-01T05:44:57.704Z,2.70
2022-10-01T05:47:24.541Z,3.00
2022-10-01T05:49:51.318Z,3.05
2022-10-01T05:52:18.114Z,2.55
2022-10-01T05:54:45.044Z,2.50
2022-10-01T05:57:11.997Z,2.78
2022-10-01T05:59:38.773Z,2.70
2022-10-01T06:02:05.737Z,2.90
2022-10-01T06:04:33.468Z,2.90
2022-10-01T06:07:02.520Z,2.75
2022-10-01T06:09:29.404Z,2.67
2022-10-01T06:11:56.244Z,3.30
2022-10-01T06:14:23.197Z,2.90
2022-10-01T06:16:53.917Z,3.30
2022-10-01T06:19:20.839Z,2.55
2022-10-01T06:21:47.641Z,4.03
2022-10-01T06:24:14.588Z,2.80
2022-10-01T06:26:41.636Z,3.00
2022-10-01T06:29:08.459Z,3.55
2022-10-01T06:31:35.423Z,3.20
2022-10-01T06:34:02.464Z,2.95
2022-10-01T06:36:29.704Z,2.72
2022-10-01T06:38:56.645Z,2.90
2022-10-01T06:41:23.769Z,2.58
2022-10-01T06:43:50.543Z,2.70
2022-10-01T06:46:17.536Z,2.80
2022-10-01T06:48:44.310Z,3.03
2022-10-01T06:51:11.218Z,2.95
2022-10-01T06:53:38.099Z,2.97
2022-10-01T06:56:08.336Z,2.55
2022-10-01T06:58:35.215Z,2.53
2022-10-01T07:01:03.856Z,2.20
2022-10-01T07:03:31.703Z,2.40
2022-10-01T07:06:03.942Z,2.30
2022-10-01T07:08:30.782Z,2.38
2022-10-01T07:11:02.887Z,3.15
2022-10-01T07:13:29.944Z,2.50
2022-10-01T07:15:57.157Z,2.63
2022-10-01T07:18:24.217Z,2.50
2022-10-01T07:20:51.040Z,2.58
2022-10-01T07:23:18.333Z,2.72
2022-10-01T07:25:45.651Z,2.95
2022-10-01T07:28:18.649Z,2.88
2022-10-01T07:30:59.732Z,2.40
2022-10-01T07:33:27.149Z,3.00
2022-10-01T07:35:54.238Z,2.83
2022-10-01T07:38:21.170Z,2.38
2022-10-01T07:40:52.458Z,2.58
2022-10-01T07:43:19.287Z,2.60
2022-10-01T07:46:05.398Z,2.88
2022-10-01T07:48:32.480Z,3.10
2022-10-01T07:50:59.260Z,3.10
2022-10-01T07:53:26.144Z,2.70
2022-10-01T07:55:53.061Z,2.60
2022-10-01T07:58:24.008Z,2.80
2022-10-01T08:00:56.099Z,3.03
2022-10-01T08:03:23.091Z,2.75
2022-10-01T08:05:50.394Z,2.67
2022-10-01T08:08:17.200Z,2.85
2022-10-01T08:10:44.189Z,2.40
2022-10-01T08:13:16.139Z,2.70
2022-10-01T08:15:50.679Z,2.67
2022-10-01T08:18:17.621Z,2.47
2022-10-01T08:20:44.555Z,2.63
2022-10-01T08:23:14.859Z,2.70
2022-10-01T08:25:43.206Z,2.85
2022-10-01T08:28:11.406Z,2.83
2022-10-01T08:30:39.896Z,3.40
2022-10-01T08:33:07.438Z,2.85
2022-10-01T08:35:34.423Z,3.10
2022-10-01T08:38:05.802Z,3.03
2022-10-01T08:40:43.669Z,2.92
2022-10-01T08:43:30.709Z,3.13
2022-10-01T08:46:14.803Z,3.15
2022-10-01T08:49:02.937Z,3.70
2022-10-01T08:51:46.336Z,3.13
2022-10-01T08:54:22.163Z,3.50
2022-10-01T08:56:49.150Z,3.22
2022-10-01T08:59:38.443Z,3.00
2022-10-01T09:02:35.842Z,3.10
2022-10-01T09:05:16.655Z,3.33
2022-10-01T09:08:02.110Z,3.28
2022-10-01T09:10:28.872Z,3.00
2022-10-01T09:12:58.746Z,2.63
2022-10-01T09:15:41.889Z,2.97
2022-10-01T09:18:23.844Z,3.05
2022-10-01T09:20:59.059Z,2.72
2022-10-01T09:23:32.075Z,3.00
2022-10-01T09:26:00.139Z,2.80
2022-10-01T09:28:31.925Z,3.03
2022-10-01T09:31:24.095Z,2.60
2022-10-01T09:34:14.078Z,3.17
2022-10-01T09:37:04.800Z,3.00
2022-10-01T09:39:42.766Z,3.00
2022-10-01T09:42:09.634Z,2.90
2022-10-01T09:44:37.696Z,3.00
2022-10-01T09:47:17.578Z,2.50
2022-10-01T09:49:46.286Z,2.97
2022-10-01T09:52:20.729Z,3.10
2022-10-01T09:54:53.650Z,3.58
2022-10-01T09:57:27.193Z,2.90
2022-10-01T10:00:17.445Z,2.90
2022-10-01T10:02:49.227Z,3.10
2022-10-01T10:05:40.937Z,2.70
2022-10-01T10:08:15.722Z,2.80
2022-10-01T10:10:58.505Z,3.17
2022-10-01T10:13:43.404Z,3.30
2022-10-01T10:16:26.891Z,3.03
2022-10-01T10:19:01.024Z,3.03
2022-10-01T10:21:30.858Z,3.08
2022-10-01T10:24:00.581Z,3.05
2022-10-01T10:26:32.630Z,2.90
2022-10-01T10:29:02.899Z,3.00
2022-10-01T10:31:40.513Z,2.42
2022-10-01T10:34:19.100Z,2.55
2022-10-01T10:36:47.181Z,2.30
2022-10-01T10:39:22.533Z,2.85
2022-10-01T10:41:52.180Z,3.55
2022-10-01T10:44:21.624Z,2.70
2022-10-01T10:46:51.180Z,2.90
2022-10-01T10:49:29.594Z,2.78
2022-10-01T10:51:58.422Z,3.00
2022-10-01T10:54:37.650Z,2.60
2022-10-01T10:57:27.952Z,2.60
2022-10-01T10:59:56.253Z,2.70
2022-10-01T11:02:26.806Z,3.00
2022-10-01T11:04:55.078Z,2.65
2022-10-01T11:07:24.282Z,3.20
2022-10-01T11:10:25.733Z,2.60
2022-10-01T11:13:18.633Z,2.45
2022-10-01T11:15:55.903Z,2.97
2022-10-01T11:19:01.459Z,2.70
2022-10-01T11:21:31.213Z,3.20
2022-10-01T11:24:03.889Z,2.47
2022-10-01T11:26:52.743Z,3.00
2022-10-01T11:32:02.345Z,3.58
2022-10-01T11:34:49.542Z,4.60
2022-10-01T11:37:34.369Z,11.40
2022-10-01T11:40:13.647Z,22.13
2022-10-01T11:42:42.205Z,5.95
2022-10-01T11:45:23.353Z,3.22
2022-10-01T11:47:55.661Z,8.18
2022-10-01T11:50:27.171Z,2.90
2022-10-01T11:53:02.725Z,7.90
2022-10-01T11:55:58.427Z,5.60
2022-10-01T11:58:53.055Z,9.70
2022-10-01T12:01:36.027Z,9.68
2022-10-01T12:04:11.624Z,4.40
2022-10-01T12:06:53.858Z,4.65
2022-10-01T12:09:32.460Z,4.15
2022-10-01T12:12:06.018Z,4.00
2022-10-01T12:15:06.256Z,6.88
2022-10-01T12:17:44.370Z,4.32
2022-10-01T12:20:25.246Z,4.07
2022-10-01T12:22:54.701Z,4.47
2022-10-01T12:25:29.095Z,3.80
2022-10-01T12:28:09.480Z,3.42
2022-10-01T12:30:46.404Z,2.83
2022-10-01T12:33:34.041Z,2.83
2022-10-01T12:36:22.211Z,3.30
2022-10-01T12:39:16.107Z,5.80
2022-10-01T12:42:12.631Z,3.15
2022-10-01T12:44:57.757Z,4.30
2022-10-01T12:47:43.007Z,2.72
2022-10-01T12:50:34.620Z,2.88
2022-10-01T12:53:07.075Z,3.33
2022-10-01T12:55:46.425Z,3.22
2022-10-01T12:58:30.392Z,2.95
2022-10-01T13:01:15.392Z,3.40
2022-10-01T13:04:08.853Z,3.30
2022-10-01T13:06:54.197Z,2.80
2022-10-01T13:09:23.641Z,3.70
2022-10-01T13:12:15.498Z,3.15
2022-10-01T13:14:44.490Z,3.75
2022-10-01T13:17:11.320Z,3.60
2022-10-01T13:19:55.376Z,3.10
2022-10-01T13:22:25.085Z,2.97
2022-10-01T13:25:33.371Z,2.97
2022-10-01T13:28:11.067Z,3.83
2022-10-01T13:31:01.981Z,3.13
2022-10-01T13:33:36.187Z,3.38
2022-10-01T13:36:06.030Z,3.75
2022-10-01T13:38:38.703Z,3.47
2022-10-01T13:41:42.462Z,3.72
2022-10-01T13:44:09.212Z,3.30
2022-10-01T13:46:51.169Z,3.70
2022-10-01T13:49:25.413Z,3.38
2022-10-01T13:51:53.224Z,3.22
2022-10-01T13:54:47.821Z,4.35
2022-10-01T13:57:38.896Z,3.40
2022-10-01T14:00:11.976Z,3.05
2022-10-01T14:02:41.804Z,3.80
2022-10-01T14:05:17.719Z,3.05
2022-10-01T14:07:47.807Z,2.80
2022-10-01T14:10:16.549Z,3.10
2022-10-01T14:13:05.309Z,3.17
2022-10-01T14:15:59.173Z,3.50
2022-10-01T14:18:39.732Z,3.95
2022-10-01T14:21:43.731Z,3.60
2022-10-01T14:24:51.201Z,4.05
2022-10-01T14:27:43.322Z,3.75
2022-10-01T14:30:39.889Z,3.67
2022-10-01T14:33:34.821Z,3.58
2022-10-01T14:36:22.408Z,3.70
2022-10-01T14:38:49.304Z,4.30
2022-10-01T14:41:23.436Z,4.57
2022-10-01T14:43:50.280Z,5.55
2022-10-01T14:46:18.669Z,5.97
2022-10-01T14:48:57.481Z,3.92
2022-10-01T14:51:27.577Z,3.10
2022-10-01T14:53:57.401Z,3.17
2022-10-01T14:56:25.153Z,2.70
2022-10-01T14:59:03.353Z,2.40
2022-10-01T15:01:30.593Z,2.22
2022-10-01T15:03:57.547Z,2.38
2022-10-01T15:06:28.759Z,2.45
2022-10-01T15:09:05.791Z,4.13
2022-10-01T15:11:34.574Z,3.17
2022-10-01T15:14:08.372Z,5.47
2022-10-01T15:16:36.538Z,2.75
2022-10-01T15:19:12.074Z,2.78
2022-10-01T15:21:54.756Z,2.13
2022-10-01T15:24:40.201Z,2.17
2022-10-01T15:27:09.146Z,4.55
2022-10-01T15:29:38.692Z,2.35
2022-10-01T15:32:06.078Z,2.00
2022-10-01T15:34:34.209Z,2.72
2022-10-01T15:37:01.646Z,3.03
2022-10-01T15:39:38.613Z,2.25
2022-10-01T15:42:21.593Z,1.48
2022-10-01T15:44:50.043Z,2.28
2022-10-01T15:47:19.738Z,2.03
2022-10-01T15:50:17.552Z,2.40
2022-10-01T15:52:50.610Z,2.38
2022-10-01T15:55:22.852Z,3.00
2022-10-01T15:58:11.580Z,2.88
2022-10-01T16:00:47.770Z,14.43
2022-10-01T16:03:24.216Z,7.85
2022-10-01T16:05:56.407Z,10.48
2022-10-01T16:08:32.891Z,14.75
2022-10-01T16:11:15.898Z,4.70
2022-10-01T16:13:50.691Z,3.90
2022-10-01T16:16:26.994Z,5.88
2022-10-01T16:18:58.059Z,8.73
2022-10-01T16:21:25.719Z,9.02
2022-10-01T16:23:55.084Z,21.63
2022-10-01T16:26:27.783Z,22.85
2022-10-01T16:28:55.979Z,23.45
2022-10-01T16:31:23.971Z,18.42
2022-10-01T16:33:50.943Z,23.13
2022-10-01T16:36:20.634Z,18.63
2022-10-01T16:38:48.341Z,15.18
2022-10-01T16:41:22.442Z,18.17
2022-10-01T16:43:51.133Z,18.73
2022-10-01T16:46:18.145Z,17.13
2022-10-01T16:48:51.462Z,15.82
2022-10-01T16:51:19.399Z,18.13
2022-10-01T16:53:47.128Z,14.93
2022-10-01T16:56:14.326Z,15.68
2022-10-01T16:58:43.410Z,14.80
2022-10-01T17:01:13.919Z,5.38
2022-10-01T17:03:41.104Z,4.53
2022-10-01T17:06:07.912Z,4.45
2022-10-01T17:08:34.771Z,4.70
2022-10-01T17:11:02.774Z,4.70
2022-10-01T17:13:32.852Z,4.18
2022-10-01T17:16:00.933Z,9.73
2022-10-01T17:18:28.110Z,5.57
2022-10-01T17:20:56.153Z,7.40
2022-10-01T17:23:23.615Z,7.35
2022-10-01T17:25:50.768Z,6.50
2022-10-01T17:28:20.302Z,8.88
2022-10-01T17:30:49.330Z,10.88
2022-10-01T17:33:20.959Z,10.43
2022-10-01T17:35:54.688Z,7.90
2022-10-01T17:38:22.764Z,10.10
2022-10-01T17:40:55.491Z,6.90
2022-10-01T17:43:23.490Z,7.43
2022-10-01T17:45:56.707Z,14.98
2022-10-01T17:48:24.201Z,9.05
2022-10-01T17:51:05.898Z,10.82
2022-10-01T17:53:39.737Z,10.30
2022-10-01T17:56:12.906Z,9.65
2022-10-01T17:58:44.796Z,7.35
2022-10-01T18:01:15.118Z,7.15
2022-10-01T18:03:42.249Z,9.75
2022-10-01T18:06:13.558Z,8.95
2022-10-01T18:08:54.570Z,7.55
2022-10-01T18:11:23.047Z,6.30
2022-10-01T18:13:51.109Z,14.13
2022-10-01T18:16:19.496Z,8.60
2022-10-01T18:21:33.853Z,8.60
2022-10-01T18:24:04.521Z,7.43
2022-10-01T18:26:33.027Z,8.05
2022-10-01T18:29:01.290Z,7.20
2022-10-01T18:31:40.730Z,4.78
2022-10-01T18:34:18.485Z,5.65
2022-10-01T18:37:08.295Z,5.57
2022-10-01T18:39:44.687Z,8.70
2022-10-01T18:42:43.165Z,5.85
2022-10-01T18:45:21.075Z,5.30
2022-10-01T18:48:13.507Z,7.50
2022-10-01T18:50:52.128Z,7.18
2022-10-01T18:54:06.396Z,7.07
2022-10-01T18:56:36.138Z,8.63
2022-10-01T18:59:21.662Z,6.38
2022-10-01T19:02:00.370Z,6.20
2022-10-01T19:05:05.393Z,6.53
2022-10-01T19:07:43.529Z,5.70
2022-10-01T19:10:23.139Z,7.32
2022-10-01T19:12:58.922Z,7.03
2022-10-01T19:15:34.453Z,6.50
2022-10-01T19:18:22.716Z,6.68
2022-10-01T19:21:16.789Z,7.72
2022-10-01T19:24:19.253Z,8.13
2022-10-01T19:27:25.019Z,11.82
2022-10-01T19:30:11.047Z,12.75
2022-10-01T19:32:55.447Z,7.95
2022-10-01T19:35:27.773Z,18.60
2022-10-01T19:38:04.191Z,12.65
2022-10-01T19:40:31.060Z,13.70
2022-10-01T19:43:16.512Z,9.32
2022-10-01T19:46:00.904Z,15.98
2022-10-01T19:48:47.908Z,14.10
2022-10-01T19:51:20.497Z,10.57
2022-10-01T19:53:56.437Z,5.57
2022-10-01T19:56:28.388Z,5.50
2022-10-01T19:58:57.424Z,7.45
2022-10-01T20:01:34.623Z,3.78
2022-10-01T20:04:05.383Z,3.20
2022-10-01T20:06:42.664Z,10.75
2022-10-01T20:09:25.826Z,10.95
2022-10-01T20:11:57.433Z,5.25
2022-10-01T20:14:51.839Z,12.23
2022-10-01T20:17:50.588Z,5.15
2022-10-01T20:20:23.808Z,5.60
2022-10-01T20:22:53.402Z,5.43
2022-10-01T20:26:08.030Z,5.20
2022-10-01T20:29:16.574Z,10.45
2022-10-01T20:32:09.358Z,7.45
2022-10-01T20:34:57.228Z,7.93
2022-10-01T20:37:36.475Z,2.97
2022-10-01T20:40:28.282Z,3.88
2022-10-01T20:43:06.026Z,5.75
2022-10-01T20:45:35.563Z,6.28
2022-10-01T20:48:25.430Z,7.05
2022-10-01T20:50:58.590Z,3.85
2022-10-01T20:53:46.713Z,4.65
2022-10-01T20:56:21.188Z,9.55
2022-10-01T20:59:00.624Z,4.07
2022-10-01T21:01:31.044Z,13.25
2022-10-01T21:04:21.005Z,10.05
2022-10-01T21:06:50.686Z,11.20
2022-10-01T21:09:27.970Z,13.40
2022-10-01T21:12:04.041Z,11.38
2022-10-01T21:14:53.719Z,10.95
2022-10-01T21:17:33.088Z,10.50
2022-10-01T21:20:15.668Z,7.10
2022-10-01T21:22:57.623Z,6.70
2022-10-01T21:25:30.213Z,8.82
2022-10-01T21:28:09.620Z,4.50
2022-10-01T21:31:16.435Z,4.50
2022-10-01T21:33:56.213Z,10.38
2022-10-01T21:36:26.017Z,5.95
2022-10-01T21:38:58.927Z,10.90
2022-10-01T21:41:53.946Z,10.73
2022-10-01T21:44:48.727Z,5.97
2022-10-01T21:48:01.064Z,14.18
2022-10-01T21:50:44.542Z,12.35
2022-10-01T21:53:28.859Z,12.57
2022-10-01T21:56:22.359Z,13.23
2022-10-01T21:59:16.967Z,11.27
2022-10-01T22:02:01.812Z,5.28
2022-10-01T22:04:48.482Z,3.83
2022-10-01T22:07:17.985Z,5.15
2022-10-01T22:09:50.219Z,9.60
2022-10-01T22:12:17.229Z,9.43
2022-10-01T22:14:45.152Z,4.15
2022-10-01T22:17:16.846Z,2.35
2022-10-01T22:19:49.311Z,4.18
2022-10-01T22:22:38.812Z,7.28
2022-10-01T22:25:07.902Z,5.70
2022-10-01T22:28:07.375Z,6.32
2022-10-01T22:30:37.312Z,5.85
2022-10-01T22:33:22.370Z,3.50
2022-10-01T22:36:25.108Z,4.28
2022-10-01T22:38:55.841Z,5.40
2022-10-01T22:41:34.177Z,3.85
2022-10-01T22:44:27.141Z,4.85
2022-10-01T22:47:31.527Z,4.25
2022-10-01T22:50:26.350Z,7.07
2022-10-01T22:52:58.134Z,5.13
2022-10-01T22:55:52.705Z,3.17
2022-10-01T22:58:46.831Z,3.33
2022-10-01T23:01:25.571Z,4.45
2022-10-01T23:03:55.512Z,2.95
2022-10-01T23:06:45.031Z,2.90
2022-10-01T23:09:20.617Z,3.05
2022-10-01T23:12:15.703Z,3.30
2022-10-01T23:14:55.712Z,7.90
2022-10-01T23:17:33.568Z,3.17
2022-10-01T23:20:28.186Z,3.85
2022-10-01T23:23:20.731Z,4.07
2022-10-01T23:26:06.219Z,2.88
2022-10-01T23:28:54.252Z,4.97
2022-10-01T23:31:26.817Z,4.82
2022-10-01T23:33:58.793Z,2.95
2022-10-01T23:39:16.140Z,3.28
2022-10-01T23:42:00.255Z,4.07
2022-10-01T23:44:42.997Z,3.17
2022-10-01T23:47:16.524Z,3.08
2022-10-01T23:49:55.873Z,4.95
2022-10-01T23:52:39.055Z,4.32
2022-10-01T23:55:56.117Z,4.43
2022-10-01T23:58:25.097Z,4.85
